createdAt,value
2019-03-28T00:02:44.182Z,9.15
2019-03-28T00:07:50.369Z,8.13
2019-03-28T00:12:53.879Z,7.60
2019-03-28T00:17:57.375Z,8.13
2019-03-28T00:23:05.431Z,7.65
2019-03-28T00:28:08.913Z,8.55
2019-03-28T00:33:12.448Z,7.37
2019-03-28T00:38:15.927Z,7.28
2019-03-28T00:43:19.398Z,7.78
2019-03-28T00:48:22.959Z,7.37
2019-03-28T00:53:26.508Z,7.10
2019-03-28T00:58:30.093Z,6.70
2019-03-28T01:03:33.600Z,6.90
2019-03-28T01:08:37.869Z,7.00
2019-03-28T01:13:41.542Z,6.75
2019-03-28T01:18:45.183Z,6.53
2019-03-28T01:23:49.182Z,6.37
2019-03-28T01:28:52.736Z,6.20
2019-03-28T01:33:56.290Z,6.33
2019-03-28T01:38:59.759Z,6.33
2019-03-28T01:44:03.508Z,6.05
2019-03-28T01:49:07.046Z,5.95
2019-03-28T01:54:10.523Z,6.22
2019-03-28T01:59:14.022Z,6.10
2019-03-28T02:04:17.622Z,5.83
2019-03-28T02:09:21.139Z,5.80
2019-03-28T02:14:24.823Z,5.50
2019-03-28T02:19:28.312Z,5.20
2019-03-28T02:24:31.791Z,5.65
2019-03-28T02:29:35.349Z,5.12
2019-03-28T02:34:38.812Z,5.70
2019-03-28T02:39:42.280Z,4.87
2019-03-28T02:44:45.797Z,4.83
2019-03-28T02:49:49.293Z,5.28
2019-03-28T02:54:52.840Z,5.15
2019-03-28T02:59:56.689Z,5.05
2019-03-28T03:05:00.471Z,5.22
2019-03-28T03:10:07.268Z,4.75
2019-03-28T03:15:11.638Z,4.87
2019-03-28T03:20:15.725Z,4.55
2019-03-28T03:25:19.438Z,4.47
2019-03-28T03:30:23.014Z,5.03
2019-03-28T03:35:26.599Z,4.60
2019-03-28T03:40:30.360Z,4.72
2019-03-28T03:45:34.185Z,4.30
2019-03-28T03:50:37.763Z,4.65
2019-03-28T03:55:41.236Z,4.35
2019-03-28T04:00:44.710Z,3.85
2019-03-28T04:05:48.245Z,4.50
2019-03-28T04:10:51.816Z,4.55
2019-03-28T04:15:55.364Z,4.50
2019-03-28T04:20:58.841Z,4.95
2019-03-28T04:26:02.306Z,4.47
2019-03-28T04:31:05.878Z,4.40
2019-03-28T04:36:09.372Z,4.12
2019-03-28T04:41:12.948Z,4.12
2019-03-28T04:46:16.427Z,4.25
2019-03-28T04:51:19.932Z,4.08
2019-03-28T04:56:23.410Z,4.10
2019-03-28T05:01:26.943Z,4.30
2019-03-28T05:06:30.426Z,4.28
2019-03-28T05:11:34.000Z,4.42
2019-03-28T05:16:37.554Z,4.85
2019-03-28T05:21:41.031Z,4.33
2019-03-28T05:26:44.653Z,4.35
2019-03-28T05:31:48.116Z,4.17
2019-03-28T05:36:52.259Z,3.95
2019-03-28T05:41:55.970Z,4.20
2019-03-28T05:46:59.433Z,4.03
2019-03-28T05:52:02.936Z,4.15
2019-03-28T05:57:06.487Z,3.80
2019-03-28T06:02:10.270Z,4.12
2019-03-28T06:07:13.735Z,3.95
2019-03-28T06:12:19.028Z,4.00
2019-03-28T06:17:22.444Z,4.20
2019-03-28T06:22:26.019Z,4.08
2019-03-28T06:27:29.652Z,23.57
2019-03-28T06:32:42.749Z,53.20
2019-03-28T06:37:38.346Z,35.45
2019-03-28T06:42:41.844Z,26.02
2019-03-28T06:47:45.329Z,22.60
2019-03-28T06:52:48.808Z,19.27
2019-03-28T06:57:52.300Z,16.42
2019-03-28T07:02:55.857Z,12.37
2019-03-28T07:07:59.329Z,12.13
2019-03-28T07:13:02.833Z,10.85
2019-03-28T07:18:06.358Z,10.58
2019-03-28T07:23:09.856Z,10.15
2019-03-28T07:28:13.410Z,9.10
2019-03-28T07:33:16.894Z,8.50
2019-03-28T07:38:20.439Z,8.50
2019-03-28T07:43:25.247Z,7.55
2019-03-28T07:48:29.297Z,7.35
2019-03-28T07:53:32.760Z,7.70
2019-03-28T07:58:36.308Z,6.83
2019-03-28T08:03:40.090Z,6.17
2019-03-28T08:08:44.248Z,6.03
2019-03-28T08:13:47.975Z,6.25
2019-03-28T08:18:51.683Z,5.45
2019-03-28T08:23:55.235Z,6.08
2019-03-28T08:28:58.736Z,6.15
2019-03-28T08:34:02.211Z,6.35
2019-03-28T08:39:07.357Z,6.20
2019-03-28T08:44:10.957Z,5.20
2019-03-28T08:49:14.466Z,5.03
2019-03-28T08:54:17.949Z,5.30
2019-03-28T08:59:21.450Z,5.03
2019-03-28T09:04:24.930Z,4.80
2019-03-28T09:09:28.478Z,4.90
2019-03-28T09:14:32.229Z,4.50
2019-03-28T09:19:38.837Z,4.70
2019-03-28T09:24:41.108Z,4.35
2019-03-28T09:29:44.569Z,4.78
2019-03-28T09:34:48.192Z,4.85
2019-03-28T09:39:51.657Z,4.15
2019-03-28T09:44:56.334Z,4.20
2019-03-28T09:50:00.183Z,4.15
2019-03-28T09:55:04.890Z,4.28
2019-03-28T10:00:11.903Z,4.00
2019-03-28T10:05:15.384Z,3.87
2019-03-28T10:10:18.958Z,4.40
2019-03-28T10:15:22.522Z,3.83
2019-03-28T10:20:25.985Z,9.23
2019-03-28T10:25:29.455Z,15.60
2019-03-28T10:30:40.936Z,17.07
2019-03-28T10:35:44.779Z,17.45
2019-03-28T10:40:48.256Z,17.02
2019-03-28T10:45:51.847Z,16.80
2019-03-28T10:50:55.411Z,14.83
2019-03-28T10:55:58.907Z,12.93
2019-03-28T11:01:02.476Z,10.80
2019-03-28T11:06:06.523Z,10.43
2019-03-28T11:11:10.203Z,10.15
2019-03-28T11:16:15.243Z,8.60
2019-03-28T11:21:19.081Z,8.18
2019-03-28T11:26:22.636Z,8.33
2019-03-28T11:31:26.186Z,7.22
2019-03-28T11:36:29.735Z,7.47
2019-03-28T11:41:33.284Z,8.03
2019-03-28T11:46:36.749Z,8.83
2019-03-28T11:51:40.274Z,10.05
2019-03-28T11:56:43.843Z,11.80
2019-03-28T12:01:59.348Z,10.10
2019-03-28T12:06:52.544Z,11.70
2019-03-28T12:11:56.087Z,11.20
2019-03-28T12:16:59.657Z,12.07
2019-03-28T12:22:03.137Z,10.60
2019-03-28T12:27:06.683Z,9.70
2019-03-28T12:32:14.313Z,9.20
2019-03-28T12:37:15.833Z,8.00
2019-03-28T12:42:19.310Z,7.30
2019-03-28T12:47:22.840Z,6.42
2019-03-28T12:52:29.600Z,6.87
2019-03-28T12:57:31.517Z,5.35
2019-03-28T13:02:35.688Z,5.85
2019-03-28T13:07:39.196Z,5.83
2019-03-28T13:12:42.824Z,5.35
2019-03-28T13:17:46.286Z,5.60
2019-03-28T13:22:52.011Z,5.25
2019-03-28T13:27:55.050Z,5.22
2019-03-28T13:32:58.510Z,5.03
2019-03-28T13:38:02.064Z,5.28
2019-03-28T13:43:05.690Z,4.75
2019-03-28T13:48:09.233Z,4.70
2019-03-28T13:53:12.705Z,4.65
2019-03-28T13:58:16.207Z,5.15
2019-03-28T14:03:19.817Z,4.42
2019-03-28T14:08:23.348Z,5.20
2019-03-28T14:13:26.805Z,4.12
2019-03-28T14:18:30.367Z,4.62
2019-03-28T14:23:34.138Z,4.30
2019-03-28T14:28:37.630Z,4.15
2019-03-28T14:33:41.198Z,4.28
2019-03-28T14:38:45.006Z,3.90
2019-03-28T14:43:48.478Z,3.65
2019-03-28T14:48:52.080Z,3.37
2019-03-28T14:53:55.920Z,3.70
2019-03-28T14:59:01.311Z,3.25
2019-03-28T15:04:04.777Z,3.10
2019-03-28T15:09:09.751Z,3.08
2019-03-28T15:14:13.697Z,3.00
2019-03-28T15:19:17.201Z,3.10
2019-03-28T15:24:21.247Z,2.90
2019-03-28T15:29:25.252Z,2.90
2019-03-28T15:34:28.768Z,2.80
2019-03-28T15:39:32.326Z,2.47
2019-03-28T15:44:39.148Z,2.52
2019-03-28T15:49:41.359Z,2.47
2019-03-28T15:54:44.827Z,6.05
2019-03-28T15:59:48.303Z,10.32
2019-03-28T16:04:51.779Z,13.30
2019-03-28T16:09:55.257Z,13.70
2019-03-28T16:14:58.804Z,11.45
2019-03-28T16:20:02.289Z,10.65
2019-03-28T16:25:07.170Z,9.38
2019-03-28T16:30:13.146Z,7.47
2019-03-28T16:35:16.633Z,6.90
2019-03-28T16:40:20.185Z,6.15
2019-03-28T16:45:23.772Z,5.75
2019-03-28T16:50:27.364Z,5.85
2019-03-28T16:55:30.877Z,5.45
2019-03-28T17:00:38.611Z,4.50
2019-03-28T17:05:42.393Z,4.97
2019-03-28T17:10:48.965Z,4.55
2019-03-28T17:15:53.717Z,4.37
2019-03-28T17:20:57.251Z,4.72
2019-03-28T17:26:00.715Z,4.40
2019-03-28T17:31:04.199Z,4.30
2019-03-28T17:36:07.692Z,4.67
2019-03-28T17:41:11.153Z,3.80
2019-03-28T17:46:14.723Z,4.08
2019-03-28T17:51:18.216Z,3.75
2019-03-28T17:56:21.958Z,3.70
2019-03-28T18:01:25.600Z,3.75
2019-03-28T18:06:29.151Z,3.65
2019-03-28T18:11:32.631Z,4.37
2019-03-28T18:16:36.269Z,3.42
2019-03-28T18:21:39.724Z,3.95
2019-03-28T18:26:43.203Z,3.95
2019-03-28T18:31:50.609Z,4.05
2019-03-28T18:36:52.122Z,4.20
2019-03-28T18:41:56.789Z,3.47
2019-03-28T18:47:00.404Z,3.85
2019-03-28T18:52:05.921Z,3.72
2019-03-28T18:57:09.118Z,4.20
2019-03-28T19:02:12.709Z,4.10
2019-03-28T19:07:16.228Z,4.37
2019-03-28T19:12:19.729Z,4.45
2019-03-28T19:17:23.205Z,4.87
2019-03-28T19:22:26.685Z,4.65
2019-03-28T19:27:30.423Z,4.37
2019-03-28T19:32:34.114Z,4.20
2019-03-28T19:37:38.465Z,4.78
2019-03-28T19:42:42.298Z,4.70
2019-03-28T19:47:45.796Z,4.95
2019-03-28T19:52:49.375Z,4.72
2019-03-28T19:57:52.867Z,5.15
2019-03-28T20:02:56.347Z,4.92
2019-03-28T20:07:59.870Z,5.08
2019-03-28T20:13:05.205Z,5.22
2019-03-28T20:18:09.772Z,4.53
2019-03-28T20:23:13.621Z,5.17
2019-03-28T20:28:17.186Z,4.70
2019-03-28T20:33:20.663Z,5.72
2019-03-28T20:38:24.527Z,5.15
2019-03-28T20:43:28.041Z,5.17
2019-03-28T20:48:31.549Z,6.20
2019-03-28T20:53:35.110Z,6.35
2019-03-28T20:58:38.603Z,5.85
2019-03-28T21:03:42.079Z,5.97
2019-03-28T21:08:45.558Z,5.70
2019-03-28T21:13:49.122Z,5.45
2019-03-28T21:18:52.847Z,5.62
2019-03-28T21:23:56.735Z,6.70
2019-03-28T21:29:00.199Z,5.90
2019-03-28T21:34:03.736Z,6.20
2019-03-28T21:39:08.894Z,5.85
2019-03-28T21:44:12.713Z,6.05
2019-03-28T21:49:16.266Z,5.78
2019-03-28T21:54:19.791Z,5.78
2019-03-28T21:59:23.263Z,5.97
2019-03-28T22:04:26.722Z,6.42
2019-03-28T22:09:31.097Z,6.40
2019-03-28T22:14:34.605Z,11.05
2019-03-28T22:19:38.067Z,15.30
2019-03-28T22:24:41.556Z,13.18
2019-03-28T22:29:45.399Z,13.48
2019-03-28T22:34:49.273Z,11.57
2019-03-28T22:39:52.776Z,11.93
2019-03-28T22:44:56.326Z,10.35
2019-03-28T22:49:59.800Z,10.58
2019-03-28T22:55:05.414Z,10.53
2019-03-28T23:00:11.950Z,9.43
2019-03-28T23:05:16.058Z,10.00
2019-03-28T23:10:21.063Z,10.43
2019-03-28T23:15:24.638Z,9.28
2019-03-28T23:20:28.221Z,9.78
2019-03-28T23:25:31.704Z,8.63
2019-03-28T23:30:35.182Z,9.40
2019-03-28T23:35:38.748Z,8.90
2019-03-28T23:40:42.210Z,9.18
2019-03-28T23:45:45.827Z,9.45
2019-03-28T23:50:49.538Z,9.30
2019-03-28T23:55:53.106Z,8.88
